sensor_id;sensor_type;location;lat;lon;timestamp;temperature;humidity
57552;DHT22;43379;48.160;14.036;2023-08-06T00:02:24;17.90;99.90
57552;DHT22;43379;48.160;14.036;2023-08-06T00:04:50;18.00;99.90
57552;DHT22;43379;48.160;14.036;2023-08-06T00:07:16;18.00;99.90
57552;DHT22;43379;48.160;14.036;2023-08-06T00:09:41;18.00;99.90
57552;DHT22;43379;48.160;14.036;2023-08-06T00:12:07;18.10;99.90
57552;DHT22;43379;48.160;14.036;2023-08-06T00:14:33;18.00;99.90
57552;DHT22;43379;48.160;14.036;2023-08-06T00:16:58;18.00;99.90
57552;DHT22;43379;48.160;14.036;2023-08-06T00:19:24;18.00;99.90
57552;DHT22;43379;48.160;14.036;2023-08-06T00:21:50;18.00;99.90
57552;DHT22;43379;48.160;14.036;2023-08-06T00:24:16;17.90;99.90
57552;DHT22;43379;48.160;14.036;2023-08-06T00:26:41;17.90;99.90
57552;DHT22;43379;48.160;14.036;2023-08-06T00:29:07;17.90;99.90
57552;DHT22;43379;48.160;14.036;2023-08-06T00:31:32;17.90;99.90
57552;DHT22;43379;48.160;14.036;2023-08-06T00:33:58;17.90;99.90
57552;DHT22;43379;48.160;14.036;2023-08-06T00:36:24;17.90;99.90
57552;DHT22;43379;48.160;14.036;2023-08-06T00:38:49;17.90;99.90
57552;DHT22;43379;48.160;14.036;2023-08-06T00:41:15;17.90;99.90
57552;DHT22;43379;48.160;14.036;2023-08-06T00:43:40;18.00;99.90
57552;DHT22;43379;48.160;14.036;2023-08-06T00:46:06;17.90;99.90
57552;DHT22;43379;48.160;14.036;2023-08-06T00:48:32;17.90;99.90
57552;DHT22;43379;48.160;14.036;2023-08-06T00:50:59;17.90;99.90
57552;DHT22;43379;48.160;14.036;2023-08-06T00:53:25;17.90;99.90
57552;DHT22;43379;48.160;14.036;2023-08-06T00:55:51;17.90;99.90
57552;DHT22;43379;48.160;14.036;2023-08-06T00:58:17;17.90;99.90
57552;DHT22;43379;48.160;14.036;2023-08-06T01:00:43;17.90;99.90
57552;DHT22;43379;48.160;14.036;2023-08-06T01:03:09;17.80;99.90
57552;DHT22;43379;48.160;14.036;2023-08-06T01:05:34;17.80;99.90
57552;DHT22;43379;48.160;14.036;2023-08-06T01:08:19;17.90;99.90
57552;DHT22;43379;48.160;14.036;2023-08-06T01:16:06;17.80;99.90
57552;DHT22;43379;48.160;14.036;2023-08-06T01:18:33;17.80;99.90
57552;DHT22;43379;48.160;14.036;2023-08-06T01:20:58;17.80;99.90
57552;DHT22;43379;48.160;14.036;2023-08-06T01:23:24;17.80;99.90
57552;DHT22;43379;48.160;14.036;2023-08-06T01:29:21;17.80;99.90
57552;DHT22;43379;48.160;14.036;2023-08-06T01:31:50;17.80;99.90
57552;DHT22;43379;48.160;14.036;2023-08-06T01:34:20;17.80;99.90
57552;DHT22;43379;48.160;14.036;2023-08-06T01:36:47;17.80;99.90
57552;DHT22;43379;48.160;14.036;2023-08-06T01:39:13;17.80;99.90
57552;DHT22;43379;48.160;14.036;2023-08-06T01:41:39;17.80;99.90
57552;DHT22;43379;48.160;14.036;2023-08-06T01:44:05;17.70;99.90
57552;DHT22;43379;48.160;14.036;2023-08-06T01:46:30;17.70;99.90
57552;DHT22;43379;48.160;14.036;2023-08-06T01:48:56;17.70;99.90
57552;DHT22;43379;48.160;14.036;2023-08-06T01:51:22;17.70;99.90
57552;DHT22;43379;48.160;14.036;2023-08-06T01:53:47;17.70;99.90
57552;DHT22;43379;48.160;14.036;2023-08-06T01:56:13;17.70;99.90
57552;DHT22;43379;48.160;14.036;2023-08-06T01:58:39;17.70;99.90
57552;DHT22;43379;48.160;14.036;2023-08-06T02:01:04;17.60;99.90
57552;DHT22;43379;48.160;14.036;2023-08-06T02:03:30;17.70;99.90
57552;DHT22;43379;48.160;14.036;2023-08-06T02:05:56;17.70;99.90
57552;DHT22;43379;48.160;14.036;2023-08-06T02:08:21;17.70;99.90
57552;DHT22;43379;48.160;14.036;2023-08-06T02:10:47;17.70;99.90
57552;DHT22;43379;48.160;14.036;2023-08-06T02:13:13;17.70;99.90
57552;DHT22;43379;48.160;14.036;2023-08-06T02:15:45;17.70;99.90
57552;DHT22;43379;48.160;14.036;2023-08-06T02:18:13;17.70;99.90
57552;DHT22;43379;48.160;14.036;2023-08-06T02:20:40;17.70;99.90
57552;DHT22;43379;48.160;14.036;2023-08-06T02:23:06;17.70;99.90
57552;DHT22;43379;48.160;14.036;2023-08-06T02:25:32;17.70;99.90
57552;DHT22;43379;48.160;14.036;2023-08-06T02:27:57;17.70;99.90
57552;DHT22;43379;48.160;14.036;2023-08-06T02:30:23;17.70;99.90
57552;DHT22;43379;48.160;14.036;2023-08-06T02:32:49;17.70;99.90
57552;DHT22;43379;48.160;14.036;2023-08-06T02:35:15;17.70;99.90
57552;DHT22;43379;48.160;14.036;2023-08-06T02:37:40;17.70;99.90
57552;DHT22;43379;48.160;14.036;2023-08-06T02:40:06;17.70;99.90
57552;DHT22;43379;48.160;14.036;2023-08-06T02:42:32;17.70;99.90
57552;DHT22;43379;48.160;14.036;2023-08-06T02:44:58;17.70;99.90
57552;DHT22;43379;48.160;14.036;2023-08-06T02:47:24;17.80;99.90
57552;DHT22;43379;48.160;14.036;2023-08-06T02:49:49;17.70;99.90
57552;DHT22;43379;48.160;14.036;2023-08-06T02:52:15;17.70;99.90
57552;DHT22;43379;48.160;14.036;2023-08-06T02:54:41;17.80;99.90
57552;DHT22;43379;48.160;14.036;2023-08-06T02:57:06;17.80;99.90
57552;DHT22;43379;48.160;14.036;2023-08-06T02:59:32;17.80;99.90
57552;DHT22;43379;48.160;14.036;2023-08-06T03:01:58;17.80;99.90
57552;DHT22;43379;48.160;14.036;2023-08-06T03:04:24;17.70;99.90
57552;DHT22;43379;48.160;14.036;2023-08-06T03:06:50;17.70;99.90
57552;DHT22;43379;48.160;14.036;2023-08-06T03:09:19;17.70;99.90
57552;DHT22;43379;48.160;14.036;2023-08-06T03:11:45;17.70;99.90
57552;DHT22;43379;48.160;14.036;2023-08-06T03:14:10;17.70;99.90
57552;DHT22;43379;48.160;14.036;2023-08-06T03:16:36;17.60;99.90
57552;DHT22;43379;48.160;14.036;2023-08-06T03:19:02;17.60;99.90
57552;DHT22;43379;48.160;14.036;2023-08-06T03:21:27;17.60;99.90
57552;DHT22;43379;48.160;14.036;2023-08-06T03:23:53;17.60;99.90
57552;DHT22;43379;48.160;14.036;2023-08-06T03:26:18;17.60;99.90
57552;DHT22;43379;48.160;14.036;2023-08-06T03:28:44;17.70;99.90
57552;DHT22;43379;48.160;14.036;2023-08-06T03:31:10;17.70;99.90
57552;DHT22;43379;48.160;14.036;2023-08-06T03:33:35;17.70;99.90
57552;DHT22;43379;48.160;14.036;2023-08-06T03:36:01;17.60;99.90
57552;DHT22;43379;48.160;14.036;2023-08-06T03:38:27;17.70;99.90
57552;DHT22;43379;48.160;14.036;2023-08-06T03:40:53;17.70;99.90
57552;DHT22;43379;48.160;14.036;2023-08-06T03:43:19;17.70;99.90
57552;DHT22;43379;48.160;14.036;2023-08-06T03:45:44;17.60;99.90
57552;DHT22;43379;48.160;14.036;2023-08-06T03:48:10;17.60;99.90
57552;DHT22;43379;48.160;14.036;2023-08-06T03:50:36;17.50;99.90
57552;DHT22;43379;48.160;14.036;2023-08-06T03:53:02;17.50;99.90
57552;DHT22;43379;48.160;14.036;2023-08-06T03:55:28;17.40;99.90
57552;DHT22;43379;48.160;14.036;2023-08-06T03:57:53;17.40;99.90
57552;DHT22;43379;48.160;14.036;2023-08-06T04:00:19;17.30;99.90
57552;DHT22;43379;48.160;14.036;2023-08-06T04:02:45;17.30;99.90
57552;DHT22;43379;48.160;14.036;2023-08-06T04:05:10;17.30;99.90
57552;DHT22;43379;48.160;14.036;2023-08-06T04:07:36;17.20;99.90
57552;DHT22;43379;48.160;14.036;2023-08-06T04:10:04;17.10;99.90
57552;DHT22;43379;48.160;14.036;2023-08-06T04:12:30;17.10;99.90
57552;DHT22;43379;48.160;14.036;2023-08-06T04:14:58;17.00;99.90
57552;DHT22;43379;48.160;14.036;2023-08-06T04:17:24;17.00;99.90
57552;DHT22;43379;48.160;14.036;2023-08-06T04:19:51;17.00;99.90
57552;DHT22;43379;48.160;14.036;2023-08-06T04:22:18;17.00;99.90
57552;DHT22;43379;48.160;14.036;2023-08-06T04:24:44;17.00;99.90
57552;DHT22;43379;48.160;14.036;2023-08-06T04:27:10;17.00;99.90
57552;DHT22;43379;48.160;14.036;2023-08-06T04:29:36;17.00;99.90
57552;DHT22;43379;48.160;14.036;2023-08-06T04:32:03;17.00;99.90
57552;DHT22;43379;48.160;14.036;2023-08-06T04:34:29;16.90;99.90
57552;DHT22;43379;48.160;14.036;2023-08-06T04:36:55;16.90;99.90
57552;DHT22;43379;48.160;14.036;2023-08-06T04:39:20;16.90;99.90
57552;DHT22;43379;48.160;14.036;2023-08-06T04:41:46;16.90;99.90
57552;DHT22;43379;48.160;14.036;2023-08-06T04:44:12;16.90;99.90
57552;DHT22;43379;48.160;14.036;2023-08-06T04:46:37;16.90;99.90
57552;DHT22;43379;48.160;14.036;2023-08-06T04:49:03;16.80;99.90
57552;DHT22;43379;48.160;14.036;2023-08-06T04:51:28;16.80;99.90
57552;DHT22;43379;48.160;14.036;2023-08-06T04:53:54;16.80;99.90
57552;DHT22;43379;48.160;14.036;2023-08-06T04:56:20;16.90;99.90
57552;DHT22;43379;48.160;14.036;2023-08-06T04:58:45;16.90;99.90
57552;DHT22;43379;48.160;14.036;2023-08-06T05:01:11;16.90;99.90
57552;DHT22;43379;48.160;14.036;2023-08-06T05:03:36;16.90;99.90
57552;DHT22;43379;48.160;14.036;2023-08-06T05:06:02;16.90;99.90
57552;DHT22;43379;48.160;14.036;2023-08-06T05:08:28;16.90;99.90
57552;DHT22;43379;48.160;14.036;2023-08-06T05:10:53;16.90;99.90
57552;DHT22;43379;48.160;14.036;2023-08-06T05:13:19;16.90;99.90
57552;DHT22;43379;48.160;14.036;2023-08-06T05:15:44;16.90;99.90
57552;DHT22;43379;48.160;14.036;2023-08-06T05:18:12;16.90;99.90
57552;DHT22;43379;48.160;14.036;2023-08-06T05:20:39;16.90;99.90
57552;DHT22;43379;48.160;14.036;2023-08-06T05:23:05;16.90;99.90
57552;DHT22;43379;48.160;14.036;2023-08-06T05:25:30;16.80;99.90
57552;DHT22;43379;48.160;14.036;2023-08-06T05:27:56;16.80;99.90
57552;DHT22;43379;48.160;14.036;2023-08-06T05:30:22;16.80;99.90
57552;DHT22;43379;48.160;14.036;2023-08-06T05:32:48;16.80;99.90
57552;DHT22;43379;48.160;14.036;2023-08-06T05:35:13;16.80;99.90
57552;DHT22;43379;48.160;14.036;2023-08-06T05:37:39;16.80;99.90
57552;DHT22;43379;48.160;14.036;2023-08-06T05:40:05;16.80;99.90
57552;DHT22;43379;48.160;14.036;2023-08-06T05:42:31;16.80;99.90
57552;DHT22;43379;48.160;14.036;2023-08-06T05:44:56;16.70;99.90
57552;DHT22;43379;48.160;14.036;2023-08-06T05:47:22;16.70;99.90
57552;DHT22;43379;48.160;14.036;2023-08-06T05:49:48;16.70;99.90
57552;DHT22;43379;48.160;14.036;2023-08-06T05:52:13;16.80;99.90
57552;DHT22;43379;48.160;14.036;2023-08-06T05:54:39;16.80;99.90
57552;DHT22;43379;48.160;14.036;2023-08-06T05:57:06;16.80;99.90
57552;DHT22;43379;48.160;14.036;2023-08-06T05:59:32;16.80;99.90
57552;DHT22;43379;48.160;14.036;2023-08-06T06:01:57;16.80;99.90
57552;DHT22;43379;48.160;14.036;2023-08-06T06:04:23;16.80;99.90
57552;DHT22;43379;48.160;14.036;2023-08-06T06:06:48;16.90;99.90
57552;DHT22;43379;48.160;14.036;2023-08-06T06:09:14;16.90;99.90
57552;DHT22;43379;48.160;14.036;2023-08-06T06:11:40;17.00;99.90
57552;DHT22;43379;48.160;14.036;2023-08-06T06:14:05;16.90;99.90
57552;DHT22;43379;48.160;14.036;2023-08-06T06:16:31;17.00;99.90
57552;DHT22;43379;48.160;14.036;2023-08-06T06:18:57;17.00;99.90
57552;DHT22;43379;48.160;14.036;2023-08-06T06:21:24;17.10;99.90
57552;DHT22;43379;48.160;14.036;2023-08-06T06:23:49;17.10;99.90
57552;DHT22;43379;48.160;14.036;2023-08-06T06:26:17;17.10;99.90
57552;DHT22;43379;48.160;14.036;2023-08-06T06:28:43;17.10;99.90
57552;DHT22;43379;48.160;14.036;2023-08-06T06:31:09;17.20;99.90
57552;DHT22;43379;48.160;14.036;2023-08-06T06:33:35;17.20;99.90
57552;DHT22;43379;48.160;14.036;2023-08-06T06:36:00;17.20;99.90
57552;DHT22;43379;48.160;14.036;2023-08-06T06:38:29;17.30;99.90
57552;DHT22;43379;48.160;14.036;2023-08-06T06:40:58;17.30;99.90
57552;DHT22;43379;48.160;14.036;2023-08-06T06:43:24;17.30;99.90
57552;DHT22;43379;48.160;14.036;2023-08-06T06:45:57;17.30;99.90
57552;DHT22;43379;48.160;14.036;2023-08-06T06:48:25;17.30;99.90
57552;DHT22;43379;48.160;14.036;2023-08-06T06:50:50;17.40;99.90
57552;DHT22;43379;48.160;14.036;2023-08-06T06:53:16;17.40;99.90
57552;DHT22;43379;48.160;14.036;2023-08-06T06:55:42;17.50;99.90
57552;DHT22;43379;48.160;14.036;2023-08-06T06:58:07;17.60;99.90
57552;DHT22;43379;48.160;14.036;2023-08-06T07:00:36;17.70;99.90
57552;DHT22;43379;48.160;14.036;2023-08-06T07:03:02;17.70;99.90
57552;DHT22;43379;48.160;14.036;2023-08-06T07:05:27;17.70;99.90
57552;DHT22;43379;48.160;14.036;2023-08-06T07:07:53;17.70;99.90
57552;DHT22;43379;48.160;14.036;2023-08-06T07:10:19;17.70;99.90
57552;DHT22;43379;48.160;14.036;2023-08-06T07:12:44;17.80;99.90
57552;DHT22;43379;48.160;14.036;2023-08-06T07:15:10;17.70;99.90
57552;DHT22;43379;48.160;14.036;2023-08-06T07:17:36;17.70;99.90
57552;DHT22;43379;48.160;14.036;2023-08-06T07:20:02;17.60;99.90
57552;DHT22;43379;48.160;14.036;2023-08-06T07:22:28;17.60;99.90
57552;DHT22;43379;48.160;14.036;2023-08-06T07:24:53;17.60;99.90
57552;DHT22;43379;48.160;14.036;2023-08-06T07:27:19;17.40;99.90
57552;DHT22;43379;48.160;14.036;2023-08-06T07:29:45;17.40;99.90
57552;DHT22;43379;48.160;14.036;2023-08-06T07:32:10;17.40;99.90
57552;DHT22;43379;48.160;14.036;2023-08-06T07:34:36;17.30;99.90
57552;DHT22;43379;48.160;14.036;2023-08-06T07:37:02;17.20;99.90
57552;DHT22;43379;48.160;14.036;2023-08-06T07:39:27;17.10;99.90
57552;DHT22;43379;48.160;14.036;2023-08-06T07:41:54;17.20;99.90
57552;DHT22;43379;48.160;14.036;2023-08-06T07:44:20;17.10;99.90
57552;DHT22;43379;48.160;14.036;2023-08-06T07:46:45;17.10;99.90
57552;DHT22;43379;48.160;14.036;2023-08-06T07:49:11;17.20;99.90
57552;DHT22;43379;48.160;14.036;2023-08-06T07:51:37;17.20;99.90
57552;DHT22;43379;48.160;14.036;2023-08-06T07:54:02;17.20;99.90
57552;DHT22;43379;48.160;14.036;2023-08-06T07:56:28;17.10;99.90
57552;DHT22;43379;48.160;14.036;2023-08-06T07:58:54;17.20;99.90
57552;DHT22;43379;48.160;14.036;2023-08-06T08:01:20;17.20;99.90
57552;DHT22;43379;48.160;14.036;2023-08-06T08:03:45;17.20;99.90
57552;DHT22;43379;48.160;14.036;2023-08-06T08:06:11;17.20;99.90
57552;DHT22;43379;48.160;14.036;2023-08-06T08:08:37;17.20;99.90
57552;DHT22;43379;48.160;14.036;2023-08-06T08:11:04;17.20;99.90
57552;DHT22;43379;48.160;14.036;2023-08-06T08:13:30;17.30;99.90
57552;DHT22;43379;48.160;14.036;2023-08-06T08:15:59;17.20;99.90
57552;DHT22;43379;48.160;14.036;2023-08-06T08:18:25;17.30;99.90
57552;DHT22;43379;48.160;14.036;2023-08-06T08:20:51;17.20;99.90
57552;DHT22;43379;48.160;14.036;2023-08-06T08:23:17;17.20;99.90
57552;DHT22;43379;48.160;14.036;2023-08-06T08:25:42;17.30;99.90
57552;DHT22;43379;48.160;14.036;2023-08-06T08:28:08;17.30;99.90
57552;DHT22;43379;48.160;14.036;2023-08-06T08:30:34;17.40;99.90
57552;DHT22;43379;48.160;14.036;2023-08-06T08:33:00;17.40;99.90
57552;DHT22;43379;48.160;14.036;2023-08-06T08:35:25;17.50;99.90
57552;DHT22;43379;48.160;14.036;2023-08-06T08:37:51;17.60;99.90
57552;DHT22;43379;48.160;14.036;2023-08-06T08:40:17;17.60;99.90
57552;DHT22;43379;48.160;14.036;2023-08-06T08:42:43;17.70;99.90
57552;DHT22;43379;48.160;14.036;2023-08-06T08:45:15;17.80;99.90
57552;DHT22;43379;48.160;14.036;2023-08-06T08:47:42;18.00;99.90
57552;DHT22;43379;48.160;14.036;2023-08-06T08:50:13;18.30;99.90
57552;DHT22;43379;48.160;14.036;2023-08-06T08:52:40;18.40;99.90
57552;DHT22;43379;48.160;14.036;2023-08-06T08:55:07;18.70;99.90
57552;DHT22;43379;48.160;14.036;2023-08-06T08:57:33;18.80;99.90
57552;DHT22;43379;48.160;14.036;2023-08-06T08:59:59;19.00;99.90
57552;DHT22;43379;48.160;14.036;2023-08-06T09:02:28;19.20;99.90
57552;DHT22;43379;48.160;14.036;2023-08-06T09:04:57;19.30;99.90
57552;DHT22;43379;48.160;14.036;2023-08-06T09:07:27;19.40;99.90
57552;DHT22;43379;48.160;14.036;2023-08-06T09:09:54;19.60;99.90
57552;DHT22;43379;48.160;14.036;2023-08-06T09:12:22;19.70;99.90
57552;DHT22;43379;48.160;14.036;2023-08-06T09:14:48;19.70;99.90
57552;DHT22;43379;48.160;14.036;2023-08-06T09:17:13;19.90;99.90
57552;DHT22;43379;48.160;14.036;2023-08-06T09:19:42;20.10;99.90
57552;DHT22;43379;48.160;14.036;2023-08-06T09:22:12;20.20;99.90
57552;DHT22;43379;48.160;14.036;2023-08-06T09:24:41;20.40;99.90
57552;DHT22;43379;48.160;14.036;2023-08-06T09:27:11;20.50;99.90
57552;DHT22;43379;48.160;14.036;2023-08-06T09:29:41;20.60;99.90
57552;DHT22;43379;48.160;14.036;2023-08-06T09:32:07;20.60;99.90
57552;DHT22;43379;48.160;14.036;2023-08-06T09:34:33;20.60;99.90
57552;DHT22;43379;48.160;14.036;2023-08-06T09:36:58;20.60;99.90
57552;DHT22;43379;48.160;14.036;2023-08-06T09:39:28;20.70;99.90
57552;DHT22;43379;48.160;14.036;2023-08-06T09:41:59;20.80;99.90
57552;DHT22;43379;48.160;14.036;2023-08-06T09:44:26;20.80;99.90
57552;DHT22;43379;48.160;14.036;2023-08-06T09:46:53;20.80;99.90
57552;DHT22;43379;48.160;14.036;2023-08-06T09:49:20;20.80;99.90
57552;DHT22;43379;48.160;14.036;2023-08-06T09:51:47;20.80;99.90
57552;DHT22;43379;48.160;14.036;2023-08-06T09:54:16;20.70;99.90
57552;DHT22;43379;48.160;14.036;2023-08-06T09:56:42;20.90;99.90
57552;DHT22;43379;48.160;14.036;2023-08-06T09:59:09;21.00;99.90
57552;DHT22;43379;48.160;14.036;2023-08-06T10:01:36;21.10;99.90
57552;DHT22;43379;48.160;14.036;2023-08-06T10:04:06;21.30;99.90
57552;DHT22;43379;48.160;14.036;2023-08-06T10:06:37;21.60;99.90
57552;DHT22;43379;48.160;14.036;2023-08-06T10:09:06;21.80;99.90
57552;DHT22;43379;48.160;14.036;2023-08-06T10:11:33;21.80;99.90
57552;DHT22;43379;48.160;14.036;2023-08-06T10:14:09;21.80;99.90
57552;DHT22;43379;48.160;14.036;2023-08-06T10:16:36;21.90;99.90
57552;DHT22;43379;48.160;14.036;2023-08-06T10:19:04;21.80;99.90
57552;DHT22;43379;48.160;14.036;2023-08-06T10:21:31;21.90;99.90
57552;DHT22;43379;48.160;14.036;2023-08-06T10:23:57;22.00;99.90
57552;DHT22;43379;48.160;14.036;2023-08-06T10:26:29;22.10;99.90
57552;DHT22;43379;48.160;14.036;2023-08-06T10:28:55;22.30;99.90
57552;DHT22;43379;48.160;14.036;2023-08-06T10:31:54;22.40;99.90
57552;DHT22;43379;48.160;14.036;2023-08-06T10:34:20;22.40;99.90
57552;DHT22;43379;48.160;14.036;2023-08-06T10:36:46;22.50;99.90
57552;DHT22;43379;48.160;14.036;2023-08-06T10:39:15;22.50;99.90
57552;DHT22;43379;48.160;14.036;2023-08-06T10:41:42;22.40;99.90
57552;DHT22;43379;48.160;14.036;2023-08-06T10:44:10;22.50;99.90
57552;DHT22;43379;48.160;14.036;2023-08-06T10:46:37;22.60;99.90
57552;DHT22;43379;48.160;14.036;2023-08-06T10:49:04;22.50;99.90
57552;DHT22;43379;48.160;14.036;2023-08-06T10:51:30;22.60;99.90
57552;DHT22;43379;48.160;14.036;2023-08-06T10:53:56;22.60;99.90
57552;DHT22;43379;48.160;14.036;2023-08-06T10:56:24;22.60;99.90
57552;DHT22;43379;48.160;14.036;2023-08-06T10:58:57;22.60;99.90
57552;DHT22;43379;48.160;14.036;2023-08-06T11:01:23;22.70;99.90
57552;DHT22;43379;48.160;14.036;2023-08-06T11:03:50;22.90;99.90
57552;DHT22;43379;48.160;14.036;2023-08-06T11:06:22;23.00;99.90
57552;DHT22;43379;48.160;14.036;2023-08-06T11:08:53;23.00;99.90
57552;DHT22;43379;48.160;14.036;2023-08-06T11:11:19;23.10;99.90
57552;DHT22;43379;48.160;14.036;2023-08-06T11:13:47;23.00;99.90
57552;DHT22;43379;48.160;14.036;2023-08-06T11:16:22;23.10;99.90
57552;DHT22;43379;48.160;14.036;2023-08-06T11:18:50;23.00;99.90
57552;DHT22;43379;48.160;14.036;2023-08-06T11:21:19;22.90;99.90
57552;DHT22;43379;48.160;14.036;2023-08-06T11:23:45;22.80;99.90
57552;DHT22;43379;48.160;14.036;2023-08-06T11:26:11;22.80;99.90
57552;DHT22;43379;48.160;14.036;2023-08-06T11:28:36;22.80;99.90
57552;DHT22;43379;48.160;14.036;2023-08-06T11:31:02;22.70;99.90
57552;DHT22;43379;48.160;14.036;2023-08-06T11:33:29;22.60;99.90
57552;DHT22;43379;48.160;14.036;2023-08-06T11:35:57;22.60;99.90
57552;DHT22;43379;48.160;14.036;2023-08-06T11:38:30;22.70;99.90
57552;DHT22;43379;48.160;14.036;2023-08-06T11:40:56;22.80;99.90
57552;DHT22;43379;48.160;14.036;2023-08-06T11:43:22;22.80;99.90
57552;DHT22;43379;48.160;14.036;2023-08-06T11:45:51;22.80;99.90
57552;DHT22;43379;48.160;14.036;2023-08-06T11:48:20;22.80;99.90
57552;DHT22;43379;48.160;14.036;2023-08-06T11:50:45;22.70;99.90
57552;DHT22;43379;48.160;14.036;2023-08-06T11:53:14;22.60;99.90
57552;DHT22;43379;48.160;14.036;2023-08-06T11:55:40;22.50;99.90
57552;DHT22;43379;48.160;14.036;2023-08-06T11:58:06;22.30;99.90
57552;DHT22;43379;48.160;14.036;2023-08-06T12:00:32;22.20;99.90
57552;DHT22;43379;48.160;14.036;2023-08-06T12:02:58;22.00;99.90
57552;DHT22;43379;48.160;14.036;2023-08-06T12:05:30;22.10;99.90
57552;DHT22;43379;48.160;14.036;2023-08-06T12:07:57;22.00;99.90
57552;DHT22;43379;48.160;14.036;2023-08-06T12:10:28;21.90;99.90
57552;DHT22;43379;48.160;14.036;2023-08-06T12:12:54;21.80;99.90
57552;DHT22;43379;48.160;14.036;2023-08-06T12:15:22;21.60;99.90
57552;DHT22;43379;48.160;14.036;2023-08-06T12:17:48;21.40;99.90
57552;DHT22;43379;48.160;14.036;2023-08-06T12:20:14;21.40;99.90
57552;DHT22;43379;48.160;14.036;2023-08-06T12:22:40;21.20;99.90
57552;DHT22;43379;48.160;14.036;2023-08-06T12:25:08;21.10;99.90
57552;DHT22;43379;48.160;14.036;2023-08-06T12:27:34;21.00;99.90
57552;DHT22;43379;48.160;14.036;2023-08-06T12:30:00;21.00;99.90
57552;DHT22;43379;48.160;14.036;2023-08-06T12:32:26;21.10;99.90
57552;DHT22;43379;48.160;14.036;2023-08-06T12:34:52;21.30;99.90
57552;DHT22;43379;48.160;14.036;2023-08-06T12:37:17;21.30;99.90
57552;DHT22;43379;48.160;14.036;2023-08-06T12:39:43;21.40;99.90
57552;DHT22;43379;48.160;14.036;2023-08-06T12:42:09;21.40;99.90
57552;DHT22;43379;48.160;14.036;2023-08-06T12:44:35;21.50;99.90
57552;DHT22;43379;48.160;14.036;2023-08-06T12:47:01;21.50;99.90
57552;DHT22;43379;48.160;14.036;2023-08-06T12:49:27;21.40;99.90
57552;DHT22;43379;48.160;14.036;2023-08-06T12:51:54;21.40;99.90
57552;DHT22;43379;48.160;14.036;2023-08-06T12:54:20;21.40;99.90
57552;DHT22;43379;48.160;14.036;2023-08-06T12:56:46;21.50;99.90
57552;DHT22;43379;48.160;14.036;2023-08-06T12:59:14;21.60;99.90
57552;DHT22;43379;48.160;14.036;2023-08-06T13:01:40;21.70;99.90
57552;DHT22;43379;48.160;14.036;2023-08-06T13:04:06;21.90;99.90
57552;DHT22;43379;48.160;14.036;2023-08-06T13:06:32;21.90;99.90
57552;DHT22;43379;48.160;14.036;2023-08-06T13:09:06;22.00;99.90
57552;DHT22;43379;48.160;14.036;2023-08-06T13:11:32;21.90;99.90
57552;DHT22;43379;48.160;14.036;2023-08-06T13:14:09;21.90;99.90
57552;DHT22;43379;48.160;14.036;2023-08-06T13:16:36;21.80;99.90
57552;DHT22;43379;48.160;14.036;2023-08-06T13:19:03;21.80;99.90
57552;DHT22;43379;48.160;14.036;2023-08-06T13:21:33;21.80;99.90
57552;DHT22;43379;48.160;14.036;2023-08-06T13:24:01;21.70;99.90
57552;DHT22;43379;48.160;14.036;2023-08-06T13:26:28;21.70;99.90
57552;DHT22;43379;48.160;14.036;2023-08-06T13:28:53;21.60;99.90
57552;DHT22;43379;48.160;14.036;2023-08-06T13:31:19;21.70;99.90
57552;DHT22;43379;48.160;14.036;2023-08-06T13:33:45;21.80;99.90
57552;DHT22;43379;48.160;14.036;2023-08-06T13:36:10;21.80;99.90
57552;DHT22;43379;48.160;14.036;2023-08-06T13:38:36;21.70;99.90
57552;DHT22;43379;48.160;14.036;2023-08-06T13:41:02;21.60;99.90
57552;DHT22;43379;48.160;14.036;2023-08-06T13:43:27;21.50;99.90
57552;DHT22;43379;48.160;14.036;2023-08-06T13:45:53;21.40;99.90
57552;DHT22;43379;48.160;14.036;2023-08-06T13:48:19;21.40;99.90
57552;DHT22;43379;48.160;14.036;2023-08-06T13:50:44;21.40;99.90
57552;DHT22;43379;48.160;14.036;2023-08-06T13:53:10;21.30;99.90
57552;DHT22;43379;48.160;14.036;2023-08-06T13:55:36;21.10;99.90
57552;DHT22;43379;48.160;14.036;2023-08-06T13:58:01;21.00;99.90
57552;DHT22;43379;48.160;14.036;2023-08-06T14:00:28;21.00;99.90
57552;DHT22;43379;48.160;14.036;2023-08-06T14:02:53;20.80;99.90
57552;DHT22;43379;48.160;14.036;2023-08-06T14:05:19;20.90;99.90
57552;DHT22;43379;48.160;14.036;2023-08-06T14:07:44;20.90;99.90
57552;DHT22;43379;48.160;14.036;2023-08-06T14:10:10;20.90;99.90
57552;DHT22;43379;48.160;14.036;2023-08-06T14:12:36;20.80;99.90
57552;DHT22;43379;48.160;14.036;2023-08-06T14:15:01;20.60;99.90
57552;DHT22;43379;48.160;14.036;2023-08-06T14:17:29;20.30;99.90
57552;DHT22;43379;48.160;14.036;2023-08-06T14:19:54;20.10;99.90
57552;DHT22;43379;48.160;14.036;2023-08-06T14:22:21;19.80;99.90
57552;DHT22;43379;48.160;14.036;2023-08-06T14:24:47;19.70;99.90
57552;DHT22;43379;48.160;14.036;2023-08-06T14:27:12;19.50;99.90
57552;DHT22;43379;48.160;14.036;2023-08-06T14:29:38;19.50;99.90
57552;DHT22;43379;48.160;14.036;2023-08-06T14:32:04;19.50;99.90
57552;DHT22;43379;48.160;14.036;2023-08-06T14:34:30;19.50;99.90
57552;DHT22;43379;48.160;14.036;2023-08-06T14:36:56;19.40;99.90
57552;DHT22;43379;48.160;14.036;2023-08-06T14:39:22;19.40;99.90
57552;DHT22;43379;48.160;14.036;2023-08-06T14:41:47;19.50;99.90
57552;DHT22;43379;48.160;14.036;2023-08-06T14:44:13;19.60;99.90
57552;DHT22;43379;48.160;14.036;2023-08-06T14:46:39;19.60;99.90
57552;DHT22;43379;48.160;14.036;2023-08-06T14:49:04;19.60;99.90
57552;DHT22;43379;48.160;14.036;2023-08-06T14:51:30;19.60;99.90
57552;DHT22;43379;48.160;14.036;2023-08-06T14:53:56;19.70;99.90
57552;DHT22;43379;48.160;14.036;2023-08-06T14:56:22;19.70;99.90
57552;DHT22;43379;48.160;14.036;2023-08-06T14:58:48;19.70;99.90
57552;DHT22;43379;48.160;14.036;2023-08-06T15:01:14;19.80;99.90
57552;DHT22;43379;48.160;14.036;2023-08-06T15:03:39;19.70;99.90
57552;DHT22;43379;48.160;14.036;2023-08-06T15:06:05;19.70;99.90
57552;DHT22;43379;48.160;14.036;2023-08-06T15:08:31;19.60;99.90
57552;DHT22;43379;48.160;14.036;2023-08-06T15:10:56;19.60;99.90
57552;DHT22;43379;48.160;14.036;2023-08-06T15:13:22;19.60;99.90
57552;DHT22;43379;48.160;14.036;2023-08-06T15:15:49;19.60;99.90
57552;DHT22;43379;48.160;14.036;2023-08-06T15:18:15;19.50;99.90
57552;DHT22;43379;48.160;14.036;2023-08-06T15:20:41;19.40;99.90